Addis, Louisiana
Current Conditions -  °F | °C
As of 10:53 AM on Sunday 21 Dec 2014 (Local Time) from KBTR Reporting Station
Clear Clear  
Wind Chill: 55°   Ceiling: Unl
Heat Index: 55°   Visibility: 10mi
Dew Point: 46°   Wind: 3mph
Humidity: 72%   Direction: NA
Pressure: 30.13"   Gusts: NA
Location:  30.35°N, 91.27°W
Report Text: KBTR 211653Z VRB03KT 10SM CLR 13/08 A3013 RMK AO2 SLP203 T01280078
Loading
Personal Weather Stations






























Interactive Weather Map New forecast layout! Learn more

10-Day Weather Forecast

Advertisements
Track Severe Weather on mobile